sensor_id;sensor_type;location;lat;lon;timestamp;P1;durP1;ratioP1;P2;durP2;ratioP2
25988;SDS011;13778;48.236;9.894;2023-04-03T00:02:37;10.00;;;7.78;;
25988;SDS011;13778;48.236;9.894;2023-04-03T00:05:29;8.65;;;6.32;;
25988;SDS011;13778;48.236;9.894;2023-04-03T00:08:19;7.55;;;6.75;;
25988;SDS011;13778;48.236;9.894;2023-04-03T00:11:10;9.50;;;6.78;;
25988;SDS011;13778;48.236;9.894;2023-04-03T00:14:02;8.02;;;7.05;;
25988;SDS011;13778;48.236;9.894;2023-04-03T00:19:42;9.73;;;7.65;;
25988;SDS011;13778;48.236;9.894;2023-04-03T00:22:33;10.38;;;7.28;;
25988;SDS011;13778;48.236;9.894;2023-04-03T00:25:23;11.50;;;7.57;;
25988;SDS011;13778;48.236;9.894;2023-04-03T00:28:14;11.13;;;7.20;;
25988;SDS011;13778;48.236;9.894;2023-04-03T00:31:06;11.35;;;7.18;;
25988;SDS011;13778;48.236;9.894;2023-04-03T00:33:56;7.70;;;6.82;;
25988;SDS011;13778;48.236;9.894;2023-04-03T00:36:47;6.78;;;6.07;;
25988;SDS011;13778;48.236;9.894;2023-04-03T00:39:37;7.43;;;6.03;;
25988;SDS011;13778;48.236;9.894;2023-04-03T00:42:28;8.98;;;7.20;;
25988;SDS011;13778;48.236;9.894;2023-04-03T00:45:23;9.43;;;6.68;;
25988;SDS011;13778;48.236;9.894;2023-04-03T00:48:16;10.50;;;7.18;;
25988;SDS011;13778;48.236;9.894;2023-04-03T00:51:09;7.97;;;6.93;;
25988;SDS011;13778;48.236;9.894;2023-04-03T00:54:01;8.25;;;6.60;;
25988;SDS011;13778;48.236;9.894;2023-04-03T00:56:53;8.52;;;6.60;;
25988;SDS011;13778;48.236;9.894;2023-04-03T01:02:35;8.98;;;6.88;;
25988;SDS011;13778;48.236;9.894;2023-04-03T01:05:27;9.98;;;7.30;;
25988;SDS011;13778;48.236;9.894;2023-04-03T01:08:17;8.55;;;6.60;;
25988;SDS011;13778;48.236;9.894;2023-04-03T01:11:07;7.00;;;6.30;;
25988;SDS011;13778;48.236;9.894;2023-04-03T01:13:58;7.50;;;6.30;;
25988;SDS011;13778;48.236;9.894;2023-04-03T01:16:52;8.38;;;6.82;;
25988;SDS011;13778;48.236;9.894;2023-04-03T01:19:43;9.85;;;6.70;;
25988;SDS011;13778;48.236;9.894;2023-04-03T01:22:36;9.90;;;6.07;;
25988;SDS011;13778;48.236;9.894;2023-04-03T01:25:32;9.93;;;6.47;;
25988;SDS011;13778;48.236;9.894;2023-04-03T01:28:24;7.80;;;6.13;;
25988;SDS011;13778;48.236;9.894;2023-04-03T01:31:18;7.18;;;6.20;;
25988;SDS011;13778;48.236;9.894;2023-04-03T01:34:11;7.63;;;6.00;;
25988;SDS011;13778;48.236;9.894;2023-04-03T01:39:52;8.10;;;6.15;;
25988;SDS011;13778;48.236;9.894;2023-04-03T01:42:43;8.38;;;5.85;;
25988;SDS011;13778;48.236;9.894;2023-04-03T01:45:33;6.30;;;5.65;;
25988;SDS011;13778;48.236;9.894;2023-04-03T01:48:24;6.05;;;5.40;;
25988;SDS011;13778;48.236;9.894;2023-04-03T01:51:15;6.93;;;4.68;;
25988;SDS011;13778;48.236;9.894;2023-04-03T01:56:56;8.32;;;5.18;;
25988;SDS011;13778;48.236;9.894;2023-04-03T01:59:46;6.25;;;5.30;;
25988;SDS011;13778;48.236;9.894;2023-04-03T02:02:37;7.43;;;5.55;;
25988;SDS011;13778;48.236;9.894;2023-04-03T02:05:27;6.55;;;5.05;;
25988;SDS011;13778;48.236;9.894;2023-04-03T02:08:19;7.47;;;5.43;;
25988;SDS011;13778;48.236;9.894;2023-04-03T02:11:09;6.10;;;5.03;;
25988;SDS011;13778;48.236;9.894;2023-04-03T02:14:00;7.05;;;4.90;;
25988;SDS011;13778;48.236;9.894;2023-04-03T02:16:50;6.10;;;4.70;;
25988;SDS011;13778;48.236;9.894;2023-04-03T02:19:41;6.93;;;4.63;;
25988;SDS011;13778;48.236;9.894;2023-04-03T02:22:31;5.07;;;4.20;;
25988;SDS011;13778;48.236;9.894;2023-04-03T02:25:23;6.78;;;4.03;;
25988;SDS011;13778;48.236;9.894;2023-04-03T02:31:04;5.68;;;4.28;;
25988;SDS011;13778;48.236;9.894;2023-04-03T02:33:55;5.18;;;3.90;;
25988;SDS011;13778;48.236;9.894;2023-04-03T02:36:45;5.47;;;4.10;;
25988;SDS011;13778;48.236;9.894;2023-04-03T02:39:36;5.90;;;4.28;;
25988;SDS011;13778;48.236;9.894;2023-04-03T02:42:28;4.28;;;3.88;;
25988;SDS011;13778;48.236;9.894;2023-04-03T02:45:18;5.22;;;4.10;;
25988;SDS011;13778;48.236;9.894;2023-04-03T02:48:09;6.10;;;4.22;;
25988;SDS011;13778;48.236;9.894;2023-04-03T02:50:59;5.18;;;3.97;;
25988;SDS011;13778;48.236;9.894;2023-04-03T02:53:50;4.38;;;3.75;;
25988;SDS011;13778;48.236;9.894;2023-04-03T02:56:40;4.32;;;3.80;;
25988;SDS011;13778;48.236;9.894;2023-04-03T02:59:32;5.97;;;4.78;;
25988;SDS011;13778;48.236;9.894;2023-04-03T03:02:23;7.07;;;4.90;;
25988;SDS011;13778;48.236;9.894;2023-04-03T03:05:13;6.35;;;4.55;;
25988;SDS011;13778;48.236;9.894;2023-04-03T03:08:03;8.52;;;5.22;;
25988;SDS011;13778;48.236;9.894;2023-04-03T03:10:54;5.68;;;5.03;;
25988;SDS011;13778;48.236;9.894;2023-04-03T03:13:45;6.22;;;5.15;;
25988;SDS011;13778;48.236;9.894;2023-04-03T03:16:37;7.03;;;5.20;;
25988;SDS011;13778;48.236;9.894;2023-04-03T03:19:27;6.85;;;5.63;;
25988;SDS011;13778;48.236;9.894;2023-04-03T03:22:19;9.18;;;5.85;;
25988;SDS011;13778;48.236;9.894;2023-04-03T03:25:09;6.97;;;5.30;;
25988;SDS011;13778;48.236;9.894;2023-04-03T03:28:00;6.13;;;5.28;;
25988;SDS011;13778;48.236;9.894;2023-04-03T03:30:50;6.88;;;5.38;;
25988;SDS011;13778;48.236;9.894;2023-04-03T03:33:42;6.45;;;5.20;;
25988;SDS011;13778;48.236;9.894;2023-04-03T03:39:23;6.50;;;4.85;;
25988;SDS011;13778;48.236;9.894;2023-04-03T03:42:14;6.82;;;5.53;;
25988;SDS011;13778;48.236;9.894;2023-04-03T03:45:04;7.15;;;5.68;;
25988;SDS011;13778;48.236;9.894;2023-04-03T03:47:55;8.32;;;5.20;;
25988;SDS011;13778;48.236;9.894;2023-04-03T03:50:48;8.48;;;4.88;;
25988;SDS011;13778;48.236;9.894;2023-04-03T03:53:38;4.43;;;3.75;;
25988;SDS011;13778;48.236;9.894;2023-04-03T03:56:29;6.50;;;3.78;;
25988;SDS011;13778;48.236;9.894;2023-04-03T03:59:19;5.35;;;3.80;;
25988;SDS011;13778;48.236;9.894;2023-04-03T04:02:10;7.65;;;4.38;;
25988;SDS011;13778;48.236;9.894;2023-04-03T04:05:01;4.93;;;4.43;;
25988;SDS011;13778;48.236;9.894;2023-04-03T04:07:53;9.10;;;4.82;;
25988;SDS011;13778;48.236;9.894;2023-04-03T04:10:43;6.68;;;4.97;;
25988;SDS011;13778;48.236;9.894;2023-04-03T04:13:34;6.30;;;4.70;;
25988;SDS011;13778;48.236;9.894;2023-04-03T04:16:24;6.00;;;4.25;;
25988;SDS011;13778;48.236;9.894;2023-04-03T04:19:15;7.18;;;5.53;;
25988;SDS011;13778;48.236;9.894;2023-04-03T04:22:05;11.20;;;4.70;;
25988;SDS011;13778;48.236;9.894;2023-04-03T04:24:57;4.93;;;4.22;;
25988;SDS011;13778;48.236;9.894;2023-04-03T04:30:38;6.05;;;4.28;;
25988;SDS011;13778;48.236;9.894;2023-04-03T04:33:28;8.48;;;5.22;;
25988;SDS011;13778;48.236;9.894;2023-04-03T04:36:19;9.82;;;6.45;;
25988;SDS011;13778;48.236;9.894;2023-04-03T04:39:09;4.55;;;3.80;;
25988;SDS011;13778;48.236;9.894;2023-04-03T04:42:01;5.63;;;4.10;;
25988;SDS011;13778;48.236;9.894;2023-04-03T04:44:52;5.53;;;3.72;;
25988;SDS011;13778;48.236;9.894;2023-04-03T04:47:42;6.15;;;3.50;;
25988;SDS011;13778;48.236;9.894;2023-04-03T04:50:33;7.47;;;4.15;;
25988;SDS011;13778;48.236;9.894;2023-04-03T04:53:24;3.33;;;3.03;;
25988;SDS011;13778;48.236;9.894;2023-04-03T04:56:14;4.47;;;3.08;;
25988;SDS011;13778;48.236;9.894;2023-04-03T04:59:06;5.97;;;3.38;;
25988;SDS011;13778;48.236;9.894;2023-04-03T05:04:46;6.78;;;3.42;;
25988;SDS011;13778;48.236;9.894;2023-04-03T05:07:39;6.95;;;3.28;;
25988;SDS011;13778;48.236;9.894;2023-04-03T05:10:30;7.43;;;3.88;;
25988;SDS011;13778;48.236;9.894;2023-04-03T05:13:20;5.32;;;3.60;;
25988;SDS011;13778;48.236;9.894;2023-04-03T05:16:12;6.15;;;3.53;;
25988;SDS011;13778;48.236;9.894;2023-04-03T05:19:03;9.88;;;3.88;;
25988;SDS011;13778;48.236;9.894;2023-04-03T05:21:53;9.05;;;3.85;;
25988;SDS011;13778;48.236;9.894;2023-04-03T05:24:44;3.55;;;3.08;;
25988;SDS011;13778;48.236;9.894;2023-04-03T05:27:34;5.28;;;3.35;;
25988;SDS011;13778;48.236;9.894;2023-04-03T05:30:25;3.33;;;2.80;;
25988;SDS011;13778;48.236;9.894;2023-04-03T05:33:17;6.85;;;3.72;;
25988;SDS011;13778;48.236;9.894;2023-04-03T05:38:57;3.72;;;3.25;;
25988;SDS011;13778;48.236;9.894;2023-04-03T05:41:48;3.90;;;3.17;;
25988;SDS011;13778;48.236;9.894;2023-04-03T05:44:38;3.72;;;3.30;;
25988;SDS011;13778;48.236;9.894;2023-04-03T05:47:29;8.88;;;3.50;;
25988;SDS011;13778;48.236;9.894;2023-04-03T05:50:21;5.65;;;3.38;;
25988;SDS011;13778;48.236;9.894;2023-04-03T05:56:02;4.35;;;3.25;;
25988;SDS011;13778;48.236;9.894;2023-04-03T05:58:52;5.57;;;3.67;;
25988;SDS011;13778;48.236;9.894;2023-04-03T06:01:43;5.22;;;3.97;;
25988;SDS011;13778;48.236;9.894;2023-04-03T06:04:33;6.93;;;3.83;;
25988;SDS011;13778;48.236;9.894;2023-04-03T06:07:26;5.22;;;4.03;;
25988;SDS011;13778;48.236;9.894;2023-04-03T06:10:17;5.40;;;3.63;;
25988;SDS011;13778;48.236;9.894;2023-04-03T06:13:09;5.82;;;3.33;;
25988;SDS011;13778;48.236;9.894;2023-04-03T06:15:59;5.25;;;3.53;;
25988;SDS011;13778;48.236;9.894;2023-04-03T06:18:49;9.88;;;3.55;;
25988;SDS011;13778;48.236;9.894;2023-04-03T06:21:40;6.32;;;4.18;;
25988;SDS011;13778;48.236;9.894;2023-04-03T06:24:33;4.38;;;3.50;;
25988;SDS011;13778;48.236;9.894;2023-04-03T06:27:24;5.85;;;3.80;;
25988;SDS011;13778;48.236;9.894;2023-04-03T06:30:14;6.40;;;3.63;;
25988;SDS011;13778;48.236;9.894;2023-04-03T06:33:05;5.95;;;4.53;;
25988;SDS011;13778;48.236;9.894;2023-04-03T06:35:56;4.25;;;3.60;;
25988;SDS011;13778;48.236;9.894;2023-04-03T06:38:47;6.55;;;4.28;;
25988;SDS011;13778;48.236;9.894;2023-04-03T06:41:39;7.38;;;4.78;;
25988;SDS011;13778;48.236;9.894;2023-04-03T06:44:29;5.22;;;3.90;;
25988;SDS011;13778;48.236;9.894;2023-04-03T06:47:20;5.03;;;4.47;;
25988;SDS011;13778;48.236;9.894;2023-04-03T06:50:11;8.95;;;4.50;;
25988;SDS011;13778;48.236;9.894;2023-04-03T06:53:03;5.47;;;4.10;;
25988;SDS011;13778;48.236;9.894;2023-04-03T06:55:53;5.13;;;4.30;;
25988;SDS011;13778;48.236;9.894;2023-04-03T06:58:45;6.45;;;4.82;;
25988;SDS011;13778;48.236;9.894;2023-04-03T07:01:36;5.80;;;4.53;;
25988;SDS011;13778;48.236;9.894;2023-04-03T07:04:27;9.98;;;6.68;;
25988;SDS011;13778;48.236;9.894;2023-04-03T07:07:17;6.35;;;5.03;;
25988;SDS011;13778;48.236;9.894;2023-04-03T07:10:08;5.63;;;5.05;;
25988;SDS011;13778;48.236;9.894;2023-04-03T07:12:59;7.25;;;5.63;;
25988;SDS011;13778;48.236;9.894;2023-04-03T07:15:51;4.95;;;4.22;;
25988;SDS011;13778;48.236;9.894;2023-04-03T07:18:42;4.60;;;3.88;;
25988;SDS011;13778;48.236;9.894;2023-04-03T07:21:32;7.72;;;4.40;;
25988;SDS011;13778;48.236;9.894;2023-04-03T07:24:23;4.25;;;3.85;;
25988;SDS011;13778;48.236;9.894;2023-04-03T07:27:14;6.80;;;4.82;;
25988;SDS011;13778;48.236;9.894;2023-04-03T07:30:05;8.60;;;4.47;;
25988;SDS011;13778;48.236;9.894;2023-04-03T07:32:57;9.30;;;4.70;;
25988;SDS011;13778;48.236;9.894;2023-04-03T07:38:37;5.10;;;4.10;;
25988;SDS011;13778;48.236;9.894;2023-04-03T07:41:28;7.78;;;5.03;;
25988;SDS011;13778;48.236;9.894;2023-04-03T07:44:19;6.80;;;4.22;;
25988;SDS011;13778;48.236;9.894;2023-04-03T07:47:09;8.55;;;5.38;;
25988;SDS011;13778;48.236;9.894;2023-04-03T07:50:01;5.93;;;4.50;;
25988;SDS011;13778;48.236;9.894;2023-04-03T07:55:45;6.60;;;4.10;;
25988;SDS011;13778;48.236;9.894;2023-04-03T07:58:36;8.55;;;4.75;;
25988;SDS011;13778;48.236;9.894;2023-04-03T08:01:27;6.20;;;4.13;;
25988;SDS011;13778;48.236;9.894;2023-04-03T08:04:17;7.57;;;4.97;;
25988;SDS011;13778;48.236;9.894;2023-04-03T08:07:09;7.78;;;4.72;;
25988;SDS011;13778;48.236;9.894;2023-04-03T08:12:50;6.38;;;4.50;;
25988;SDS011;13778;48.236;9.894;2023-04-03T08:15:40;7.50;;;4.63;;
25988;SDS011;13778;48.236;9.894;2023-04-03T08:18:31;6.78;;;4.25;;
25988;SDS011;13778;48.236;9.894;2023-04-03T08:21:21;5.88;;;4.65;;
25988;SDS011;13778;48.236;9.894;2023-04-03T08:24:13;6.50;;;4.47;;
25988;SDS011;13778;48.236;9.894;2023-04-03T08:29:55;7.28;;;4.20;;
25988;SDS011;13778;48.236;9.894;2023-04-03T08:32:45;6.65;;;4.40;;
25988;SDS011;13778;48.236;9.894;2023-04-03T08:35:38;8.18;;;4.57;;
25988;SDS011;13778;48.236;9.894;2023-04-03T08:38:28;5.00;;;4.07;;
25988;SDS011;13778;48.236;9.894;2023-04-03T08:41:24;7.70;;;4.30;;
25988;SDS011;13778;48.236;9.894;2023-04-03T08:44:22;6.55;;;4.30;;
25988;SDS011;13778;48.236;9.894;2023-04-03T08:47:18;5.40;;;4.28;;
25988;SDS011;13778;48.236;9.894;2023-04-03T08:50:11;6.90;;;4.35;;
25988;SDS011;13778;48.236;9.894;2023-04-03T08:53:02;9.25;;;4.60;;
25988;SDS011;13778;48.236;9.894;2023-04-03T08:55:55;6.43;;;4.85;;
25988;SDS011;13778;48.236;9.894;2023-04-03T08:58:49;6.45;;;4.45;;
25988;SDS011;13778;48.236;9.894;2023-04-03T09:01:41;9.68;;;4.75;;
25988;SDS011;13778;48.236;9.894;2023-04-03T09:04:33;6.65;;;4.13;;
25988;SDS011;13778;48.236;9.894;2023-04-03T09:07:25;7.88;;;5.45;;
25988;SDS011;13778;48.236;9.894;2023-04-03T09:10:23;6.43;;;4.47;;
25988;SDS011;13778;48.236;9.894;2023-04-03T09:13:18;4.75;;;4.07;;
25988;SDS011;13778;48.236;9.894;2023-04-03T09:16:15;6.25;;;4.32;;
25988;SDS011;13778;48.236;9.894;2023-04-03T09:19:09;6.53;;;3.90;;
25988;SDS011;13778;48.236;9.894;2023-04-03T09:22:09;5.85;;;4.13;;
25988;SDS011;13778;48.236;9.894;2023-04-03T09:25:02;4.07;;;3.63;;
25988;SDS011;13778;48.236;9.894;2023-04-03T09:27:55;5.22;;;3.55;;
25988;SDS011;13778;48.236;9.894;2023-04-03T09:30:46;6.23;;;4.30;;
25988;SDS011;13778;48.236;9.894;2023-04-03T09:33:38;5.25;;;4.30;;
25988;SDS011;13778;48.236;9.894;2023-04-03T09:36:40;7.20;;;3.80;;
25988;SDS011;13778;48.236;9.894;2023-04-03T09:39:30;5.70;;;4.45;;
25988;SDS011;13778;48.236;9.894;2023-04-03T09:42:22;5.10;;;3.90;;
25988;SDS011;13778;48.236;9.894;2023-04-03T09:45:21;6.95;;;3.50;;
25988;SDS011;13778;48.236;9.894;2023-04-03T09:48:15;7.18;;;4.00;;
25988;SDS011;13778;48.236;9.894;2023-04-03T09:51:08;7.13;;;3.90;;
25988;SDS011;13778;48.236;9.894;2023-04-03T09:54:23;4.38;;;3.80;;
25988;SDS011;13778;48.236;9.894;2023-04-03T09:57:14;6.07;;;3.45;;
25988;SDS011;13778;48.236;9.894;2023-04-03T10:00:06;6.25;;;3.67;;
25988;SDS011;13778;48.236;9.894;2023-04-03T10:03:00;7.18;;;3.40;;
25988;SDS011;13778;48.236;9.894;2023-04-03T10:05:50;4.30;;;3.35;;
25988;SDS011;13778;48.236;9.894;2023-04-03T10:08:46;4.18;;;3.75;;
25988;SDS011;13778;48.236;9.894;2023-04-03T10:11:58;6.60;;;3.50;;
25988;SDS011;13778;48.236;9.894;2023-04-03T10:14:54;4.25;;;3.33;;
25988;SDS011;13778;48.236;9.894;2023-04-03T10:17:49;3.78;;;3.47;;
25988;SDS011;13778;48.236;9.894;2023-04-03T10:20:42;4.90;;;3.30;;
25988;SDS011;13778;48.236;9.894;2023-04-03T10:23:36;4.57;;;3.55;;
25988;SDS011;13778;48.236;9.894;2023-04-03T10:26:32;5.53;;;3.58;;
25988;SDS011;13778;48.236;9.894;2023-04-03T10:29:32;5.13;;;3.80;;
25988;SDS011;13778;48.236;9.894;2023-04-03T10:32:37;3.92;;;3.50;;
25988;SDS011;13778;48.236;9.894;2023-04-03T10:35:34;3.97;;;3.58;;
25988;SDS011;13778;48.236;9.894;2023-04-03T10:38:30;5.30;;;3.70;;
25988;SDS011;13778;48.236;9.894;2023-04-03T10:41:22;6.75;;;4.18;;
25988;SDS011;13778;48.236;9.894;2023-04-03T10:44:18;6.43;;;4.53;;
25988;SDS011;13778;48.236;9.894;2023-04-03T10:47:11;5.93;;;4.78;;
25988;SDS011;13778;48.236;9.894;2023-04-03T10:50:06;6.07;;;3.90;;
25988;SDS011;13778;48.236;9.894;2023-04-03T10:53:03;6.43;;;3.90;;
25988;SDS011;13778;48.236;9.894;2023-04-03T10:55:56;6.10;;;3.90;;
25988;SDS011;13778;48.236;9.894;2023-04-03T10:58:48;5.32;;;3.85;;
25988;SDS011;13778;48.236;9.894;2023-04-03T11:01:41;5.07;;;3.55;;
25988;SDS011;13778;48.236;9.894;2023-04-03T11:04:34;4.63;;;3.80;;
25988;SDS011;13778;48.236;9.894;2023-04-03T11:07:26;6.18;;;4.03;;
25988;SDS011;13778;48.236;9.894;2023-04-03T11:10:20;3.80;;;3.30;;
25988;SDS011;13778;48.236;9.894;2023-04-03T11:13:13;4.93;;;4.00;;
25988;SDS011;13778;48.236;9.894;2023-04-03T11:16:05;4.88;;;3.85;;
25988;SDS011;13778;48.236;9.894;2023-04-03T11:18:58;6.03;;;3.97;;
25988;SDS011;13778;48.236;9.894;2023-04-03T11:21:51;4.85;;;3.30;;
25988;SDS011;13778;48.236;9.894;2023-04-03T11:24:46;4.70;;;3.42;;
25988;SDS011;13778;48.236;9.894;2023-04-03T11:27:41;5.50;;;3.13;;
25988;SDS011;13778;48.236;9.894;2023-04-03T11:30:34;5.57;;;3.40;;
25988;SDS011;13778;48.236;9.894;2023-04-03T11:33:36;4.75;;;3.53;;
25988;SDS011;13778;48.236;9.894;2023-04-03T11:36:32;5.05;;;3.47;;
25988;SDS011;13778;48.236;9.894;2023-04-03T11:39:24;4.18;;;3.40;;
25988;SDS011;13778;48.236;9.894;2023-04-03T11:42:16;4.95;;;4.00;;
25988;SDS011;13778;48.236;9.894;2023-04-03T11:45:26;5.07;;;3.13;;
25988;SDS011;13778;48.236;9.894;2023-04-03T11:51:40;4.03;;;3.53;;
25988;SDS011;13778;48.236;9.894;2023-04-03T11:54:45;5.72;;;4.20;;
25988;SDS011;13778;48.236;9.894;2023-04-03T11:57:46;5.38;;;4.68;;
25988;SDS011;13778;48.236;9.894;2023-04-03T12:03:56;6.30;;;3.92;;
25988;SDS011;13778;48.236;9.894;2023-04-03T12:09:59;5.32;;;3.47;;
25988;SDS011;13778;48.236;9.894;2023-04-03T12:12:56;12.05;;;6.47;;
25988;SDS011;13778;48.236;9.894;2023-04-03T12:15:52;9.13;;;5.93;;
25988;SDS011;13778;48.236;9.894;2023-04-03T12:18:43;8.20;;;3.97;;
25988;SDS011;13778;48.236;9.894;2023-04-03T12:24:25;5.40;;;3.17;;
25988;SDS011;13778;48.236;9.894;2023-04-03T12:30:26;4.78;;;3.20;;
25988;SDS011;13778;48.236;9.894;2023-04-03T12:33:20;4.72;;;3.65;;
25988;SDS011;13778;48.236;9.894;2023-04-03T12:36:15;7.07;;;4.13;;
25988;SDS011;13778;48.236;9.894;2023-04-03T12:39:13;5.75;;;3.65;;
25988;SDS011;13778;48.236;9.894;2023-04-03T12:42:12;3.70;;;3.35;;
25988;SDS011;13778;48.236;9.894;2023-04-03T12:45:08;4.35;;;3.72;;
25988;SDS011;13778;48.236;9.894;2023-04-03T12:48:06;5.45;;;3.47;;
25988;SDS011;13778;48.236;9.894;2023-04-03T12:51:02;4.85;;;3.22;;
25988;SDS011;13778;48.236;9.894;2023-04-03T12:53:53;7.38;;;3.28;;
25988;SDS011;13778;48.236;9.894;2023-04-03T12:56:45;3.70;;;3.00;;
25988;SDS011;13778;48.236;9.894;2023-04-03T12:59:36;3.30;;;3.00;;
25988;SDS011;13778;48.236;9.894;2023-04-03T13:02:27;3.47;;;2.88;;
25988;SDS011;13778;48.236;9.894;2023-04-03T13:05:19;4.63;;;2.93;;
25988;SDS011;13778;48.236;9.894;2023-04-03T13:08:12;4.07;;;3.05;;
25988;SDS011;13778;48.236;9.894;2023-04-03T13:11:06;6.72;;;3.20;;
25988;SDS011;13778;48.236;9.894;2023-04-03T13:13:58;3.67;;;2.72;;
25988;SDS011;13778;48.236;9.894;2023-04-03T13:16:53;4.90;;;3.28;;
25988;SDS011;13778;48.236;9.894;2023-04-03T13:19:44;3.85;;;3.25;;
25988;SDS011;13778;48.236;9.894;2023-04-03T13:22:36;5.95;;;3.10;;
25988;SDS011;13778;48.236;9.894;2023-04-03T13:25:33;5.50;;;3.65;;
25988;SDS011;13778;48.236;9.894;2023-04-03T13:31:18;5.55;;;3.92;;
25988;SDS011;13778;48.236;9.894;2023-04-03T13:34:10;4.07;;;3.03;;
25988;SDS011;13778;48.236;9.894;2023-04-03T13:37:01;6.97;;;4.13;;
25988;SDS011;13778;48.236;9.894;2023-04-03T13:39:58;9.05;;;4.72;;
25988;SDS011;13778;48.236;9.894;2023-04-03T13:42:57;5.53;;;3.95;;
25988;SDS011;13778;48.236;9.894;2023-04-03T13:45:56;4.55;;;2.83;;
25988;SDS011;13778;48.236;9.894;2023-04-03T13:48:48;6.15;;;4.15;;
25988;SDS011;13778;48.236;9.894;2023-04-03T13:51:40;6.78;;;3.45;;
25988;SDS011;13778;48.236;9.894;2023-04-03T13:54:31;6.47;;;3.60;;
25988;SDS011;13778;48.236;9.894;2023-04-03T14:00:21;4.10;;;3.63;;
25988;SDS011;13778;48.236;9.894;2023-04-03T14:03:12;4.35;;;3.38;;
25988;SDS011;13778;48.236;9.894;2023-04-03T14:06:04;4.03;;;3.25;;
25988;SDS011;13778;48.236;9.894;2023-04-03T14:08:55;4.40;;;3.22;;
25988;SDS011;13778;48.236;9.894;2023-04-03T14:11:46;5.28;;;2.97;;
25988;SDS011;13778;48.236;9.894;2023-04-03T14:14:36;6.80;;;3.33;;
25988;SDS011;13778;48.236;9.894;2023-04-03T14:17:29;3.72;;;3.40;;
25988;SDS011;13778;48.236;9.894;2023-04-03T14:20:21;5.85;;;2.78;;
25988;SDS011;13778;48.236;9.894;2023-04-03T14:23:11;5.32;;;3.58;;
25988;SDS011;13778;48.236;9.894;2023-04-03T14:26:01;8.27;;;3.90;;
25988;SDS011;13778;48.236;9.894;2023-04-03T14:28:53;4.30;;;3.17;;
25988;SDS011;13778;48.236;9.894;2023-04-03T14:31:45;5.68;;;3.70;;
25988;SDS011;13778;48.236;9.894;2023-04-03T14:34:37;5.93;;;3.75;;
25988;SDS011;13778;48.236;9.894;2023-04-03T14:37:28;4.53;;;3.30;;
25988;SDS011;13778;48.236;9.894;2023-04-03T14:40:21;5.57;;;2.95;;
25988;SDS011;13778;48.236;9.894;2023-04-03T14:43:12;3.83;;;3.17;;
25988;SDS011;13778;48.236;9.894;2023-04-03T14:46:04;3.13;;;2.72;;
25988;SDS011;13778;48.236;9.894;2023-04-03T14:48:55;6.10;;;3.47;;
25988;SDS011;13778;48.236;9.894;2023-04-03T14:51:46;5.75;;;3.72;;
25988;SDS011;13778;48.236;9.894;2023-04-03T14:54:37;4.43;;;3.30;;
25988;SDS011;13778;48.236;9.894;2023-04-03T14:57:28;3.60;;;3.00;;
25988;SDS011;13778;48.236;9.894;2023-04-03T15:00:20;6.72;;;3.83;;
25988;SDS011;13778;48.236;9.894;2023-04-03T15:03:14;6.85;;;3.10;;
25988;SDS011;13778;48.236;9.894;2023-04-03T15:06:05;4.05;;;3.13;;
25988;SDS011;13778;48.236;9.894;2023-04-03T15:08:57;5.32;;;2.70;;
25988;SDS011;13778;48.236;9.894;2023-04-03T15:11:47;2.78;;;2.50;;
25988;SDS011;13778;48.236;9.894;2023-04-03T15:14:38;3.92;;;3.05;;
25988;SDS011;13778;48.236;9.894;2023-04-03T15:17:28;4.07;;;2.50;;
25988;SDS011;13778;48.236;9.894;2023-04-03T15:20:20;4.53;;;2.50;;
25988;SDS011;13778;48.236;9.894;2023-04-03T15:23:11;5.10;;;3.20;;
25988;SDS011;13778;48.236;9.894;2023-04-03T15:26:03;6.82;;;3.30;;
25988;SDS011;13778;48.236;9.894;2023-04-03T15:28:54;5.63;;;3.35;;
25988;SDS011;13778;48.236;9.894;2023-04-03T15:31:45;4.13;;;2.88;;
25988;SDS011;13778;48.236;9.894;2023-04-03T15:34:36;10.18;;;3.10;;
25988;SDS011;13778;48.236;9.894;2023-04-03T15:37:26;5.72;;;3.30;;
25988;SDS011;13778;48.236;9.894;2023-04-03T15:40:16;3.65;;;2.58;;
25988;SDS011;13778;48.236;9.894;2023-04-03T15:43:08;5.85;;;3.28;;
25988;SDS011;13778;48.236;9.894;2023-04-03T15:45:59;6.88;;;2.80;;
25988;SDS011;13778;48.236;9.894;2023-04-03T15:48:50;6.20;;;2.92;;
25988;SDS011;13778;48.236;9.894;2023-04-03T15:51:40;4.90;;;3.05;;
25988;SDS011;13778;48.236;9.894;2023-04-03T15:54:31;3.95;;;2.85;;
25988;SDS011;13778;48.236;9.894;2023-04-03T15:57:21;2.67;;;2.22;;
25988;SDS011;13778;48.236;9.894;2023-04-03T16:00:16;3.92;;;2.55;;
25988;SDS011;13778;48.236;9.894;2023-04-03T16:03:08;2.55;;;2.35;;
25988;SDS011;13778;48.236;9.894;2023-04-03T16:06:00;3.20;;;2.60;;
25988;SDS011;13778;48.236;9.894;2023-04-03T16:08:50;5.75;;;2.40;;
25988;SDS011;13778;48.236;9.894;2023-04-03T16:11:41;3.75;;;2.50;;
25988;SDS011;13778;48.236;9.894;2023-04-03T16:14:32;3.08;;;2.30;;
25988;SDS011;13778;48.236;9.894;2023-04-03T16:17:24;8.68;;;2.63;;
25988;SDS011;13778;48.236;9.894;2023-04-03T16:20:15;5.80;;;2.40;;
25988;SDS011;13778;48.236;9.894;2023-04-03T16:25:57;3.33;;;2.75;;
25988;SDS011;13778;48.236;9.894;2023-04-03T16:28:48;4.05;;;2.50;;
25988;SDS011;13778;48.236;9.894;2023-04-03T16:31:38;4.22;;;2.40;;
25988;SDS011;13778;48.236;9.894;2023-04-03T16:34:30;4.35;;;2.45;;
25988;SDS011;13778;48.236;9.894;2023-04-03T16:37:21;4.68;;;2.42;;
25988;SDS011;13778;48.236;9.894;2023-04-03T16:40:12;3.20;;;2.30;;
25988;SDS011;13778;48.236;9.894;2023-04-03T16:43:02;6.07;;;2.50;;
25988;SDS011;13778;48.236;9.894;2023-04-03T16:45:53;4.95;;;2.50;;
25988;SDS011;13778;48.236;9.894;2023-04-03T16:48:43;5.72;;;2.80;;
25988;SDS011;13778;48.236;9.894;2023-04-03T16:51:35;7.35;;;3.17;;
25988;SDS011;13778;48.236;9.894;2023-04-03T16:57:15;6.40;;;2.40;;
25988;SDS011;13778;48.236;9.894;2023-04-03T17:00:06;4.00;;;2.28;;
25988;SDS011;13778;48.236;9.894;2023-04-03T17:02:57;4.78;;;2.25;;
25988;SDS011;13778;48.236;9.894;2023-04-03T17:05:47;3.70;;;2.30;;
25988;SDS011;13778;48.236;9.894;2023-04-03T17:08:39;4.38;;;2.70;;
25988;SDS011;13778;48.236;9.894;2023-04-03T17:11:29;4.70;;;2.33;;
25988;SDS011;13778;48.236;9.894;2023-04-03T17:14:20;4.97;;;2.95;;
25988;SDS011;13778;48.236;9.894;2023-04-03T17:17:10;9.32;;;4.85;;
25988;SDS011;13778;48.236;9.894;2023-04-03T17:20:01;3.83;;;2.80;;
25988;SDS011;13778;48.236;9.894;2023-04-03T17:22:51;5.63;;;2.72;;
25988;SDS011;13778;48.236;9.894;2023-04-03T17:25:44;7.50;;;3.67;;
25988;SDS011;13778;48.236;9.894;2023-04-03T17:28:34;6.47;;;3.45;;
25988;SDS011;13778;48.236;9.894;2023-04-03T17:31:25;6.03;;;4.43;;
25988;SDS011;13778;48.236;9.894;2023-04-03T17:34:15;6.28;;;5.63;;
25988;SDS011;13778;48.236;9.894;2023-04-03T17:37:06;5.43;;;3.50;;
25988;SDS011;13778;48.236;9.894;2023-04-03T17:39:56;4.97;;;4.40;;
25988;SDS011;13778;48.236;9.894;2023-04-03T17:42:48;5.85;;;4.07;;
25988;SDS011;13778;48.236;9.894;2023-04-03T17:48:29;8.32;;;5.70;;
25988;SDS011;13778;48.236;9.894;2023-04-03T17:51:20;6.43;;;5.82;;
25988;SDS011;13778;48.236;9.894;2023-04-03T17:54:11;5.85;;;4.90;;
25988;SDS011;13778;48.236;9.894;2023-04-03T17:57:01;5.65;;;4.50;;
25988;SDS011;13778;48.236;9.894;2023-04-03T17:59:54;5.32;;;3.47;;
25988;SDS011;13778;48.236;9.894;2023-04-03T18:02:44;9.82;;;7.68;;
25988;SDS011;13778;48.236;9.894;2023-04-03T18:05:34;10.30;;;9.30;;
25988;SDS011;13778;48.236;9.894;2023-04-03T18:08:25;9.25;;;8.35;;
25988;SDS011;13778;48.236;9.894;2023-04-03T18:11:16;6.20;;;5.40;;
25988;SDS011;13778;48.236;9.894;2023-04-03T18:14:07;8.30;;;5.60;;
25988;SDS011;13778;48.236;9.894;2023-04-03T18:16:58;6.57;;;5.80;;
25988;SDS011;13778;48.236;9.894;2023-04-03T18:19:49;10.05;;;7.10;;
25988;SDS011;13778;48.236;9.894;2023-04-03T18:22:40;8.88;;;6.78;;
25988;SDS011;13778;48.236;9.894;2023-04-03T18:25:30;7.97;;;6.50;;
25988;SDS011;13778;48.236;9.894;2023-04-03T18:28:21;10.70;;;8.38;;